sensor_id;sensor_type;location;lat;lon;timestamp;temperature;humidity
38458;DHT22;24239;48.058;10.486;2022-08-24T00:01:18;12.30;99.90
38458;DHT22;24239;48.058;10.486;2022-08-24T00:03:45;12.30;99.90
38458;DHT22;24239;48.058;10.486;2022-08-24T00:06:15;12.30;99.90
38458;DHT22;24239;48.058;10.486;2022-08-24T00:08:45;12.30;99.90
38458;DHT22;24239;48.058;10.486;2022-08-24T00:11:11;12.20;99.90
38458;DHT22;24239;48.058;10.486;2022-08-24T00:13:37;12.30;99.90
38458;DHT22;24239;48.058;10.486;2022-08-24T00:16:05;12.20;99.90
38458;DHT22;24239;48.058;10.486;2022-08-24T00:18:31;12.20;99.90
38458;DHT22;24239;48.058;10.486;2022-08-24T00:20:58;12.20;99.90
38458;DHT22;24239;48.058;10.486;2022-08-24T00:23:24;12.20;99.90
38458;DHT22;24239;48.058;10.486;2022-08-24T00:25:49;12.20;99.90
38458;DHT22;24239;48.058;10.486;2022-08-24T00:28:16;12.10;99.90
38458;DHT22;24239;48.058;10.486;2022-08-24T00:30:42;12.10;99.90
38458;DHT22;24239;48.058;10.486;2022-08-24T00:33:08;12.10;99.90
38458;DHT22;24239;48.058;10.486;2022-08-24T00:35:34;12.10;99.90
38458;DHT22;24239;48.058;10.486;2022-08-24T00:38:01;12.10;99.90
38458;DHT22;24239;48.058;10.486;2022-08-24T00:40:33;12.00;99.90
38458;DHT22;24239;48.058;10.486;2022-08-24T00:43:01;11.90;99.90
38458;DHT22;24239;48.058;10.486;2022-08-24T00:45:36;11.90;99.90
38458;DHT22;24239;48.058;10.486;2022-08-24T00:48:10;11.90;99.90
38458;DHT22;24239;48.058;10.486;2022-08-24T00:53:17;11.80;99.90
38458;DHT22;24239;48.058;10.486;2022-08-24T00:55:48;11.80;99.90
38458;DHT22;24239;48.058;10.486;2022-08-24T00:58:22;11.70;99.90
38458;DHT22;24239;48.058;10.486;2022-08-24T01:00:57;11.70;99.90
38458;DHT22;24239;48.058;10.486;2022-08-24T01:03:24;11.70;99.90
38458;DHT22;24239;48.058;10.486;2022-08-24T01:05:53;11.60;99.90
38458;DHT22;24239;48.058;10.486;2022-08-24T01:08:21;11.60;99.90
38458;DHT22;24239;48.058;10.486;2022-08-24T01:11:10;11.60;99.90
38458;DHT22;24239;48.058;10.486;2022-08-24T01:13:37;11.50;99.90
38458;DHT22;24239;48.058;10.486;2022-08-24T01:16:06;11.50;99.90
38458;DHT22;24239;48.058;10.486;2022-08-24T01:18:32;11.40;99.90
38458;DHT22;24239;48.058;10.486;2022-08-24T01:23:43;11.40;99.90
38458;DHT22;24239;48.058;10.486;2022-08-24T01:26:16;11.30;99.90
38458;DHT22;24239;48.058;10.486;2022-08-24T01:28:46;11.30;99.90
38458;DHT22;24239;48.058;10.486;2022-08-24T01:31:13;11.20;99.90
38458;DHT22;24239;48.058;10.486;2022-08-24T01:33:43;11.20;99.90
38458;DHT22;24239;48.058;10.486;2022-08-24T01:38:50;11.20;99.90
38458;DHT22;24239;48.058;10.486;2022-08-24T01:41:16;11.30;99.90
38458;DHT22;24239;48.058;10.486;2022-08-24T01:43:42;11.20;99.90
38458;DHT22;24239;48.058;10.486;2022-08-24T01:46:08;11.20;99.90
38458;DHT22;24239;48.058;10.486;2022-08-24T01:48:35;11.20;99.90
38458;DHT22;24239;48.058;10.486;2022-08-24T01:51:00;11.20;99.90
38458;DHT22;24239;48.058;10.486;2022-08-24T01:53:26;11.10;99.90
38458;DHT22;24239;48.058;10.486;2022-08-24T01:55:52;11.10;99.90
38458;DHT22;24239;48.058;10.486;2022-08-24T01:58:18;11.10;99.90
38458;DHT22;24239;48.058;10.486;2022-08-24T02:00:44;11.20;99.90
38458;DHT22;24239;48.058;10.486;2022-08-24T02:03:10;11.10;99.90
38458;DHT22;24239;48.058;10.486;2022-08-24T02:05:39;11.00;99.90
38458;DHT22;24239;48.058;10.486;2022-08-24T02:08:05;11.00;99.90
38458;DHT22;24239;48.058;10.486;2022-08-24T02:10:30;11.00;99.90
38458;DHT22;24239;48.058;10.486;2022-08-24T02:12:57;11.00;99.90
38458;DHT22;24239;48.058;10.486;2022-08-24T02:15:29;10.90;99.90
38458;DHT22;24239;48.058;10.486;2022-08-24T02:17:56;11.00;99.90
38458;DHT22;24239;48.058;10.486;2022-08-24T02:20:23;10.90;99.90
38458;DHT22;24239;48.058;10.486;2022-08-24T02:22:50;10.90;99.90
38458;DHT22;24239;48.058;10.486;2022-08-24T02:25:16;11.00;99.90
38458;DHT22;24239;48.058;10.486;2022-08-24T02:27:42;10.90;99.90
38458;DHT22;24239;48.058;10.486;2022-08-24T02:30:08;10.90;99.90
38458;DHT22;24239;48.058;10.486;2022-08-24T02:32:34;10.90;99.90
38458;DHT22;24239;48.058;10.486;2022-08-24T02:35:06;10.80;99.90
38458;DHT22;24239;48.058;10.486;2022-08-24T02:37:32;10.80;99.90
38458;DHT22;24239;48.058;10.486;2022-08-24T02:39:57;10.90;99.90
38458;DHT22;24239;48.058;10.486;2022-08-24T02:42:24;10.80;99.90
38458;DHT22;24239;48.058;10.486;2022-08-24T02:44:50;10.80;99.90
38458;DHT22;24239;48.058;10.486;2022-08-24T02:47:15;10.80;99.90
38458;DHT22;24239;48.058;10.486;2022-08-24T02:49:42;10.80;99.90
38458;DHT22;24239;48.058;10.486;2022-08-24T02:52:07;10.70;99.90
38458;DHT22;24239;48.058;10.486;2022-08-24T02:54:33;10.70;99.90
38458;DHT22;24239;48.058;10.486;2022-08-24T02:56:59;10.70;99.90
38458;DHT22;24239;48.058;10.486;2022-08-24T02:59:25;10.70;99.90
38458;DHT22;24239;48.058;10.486;2022-08-24T03:01:50;10.60;99.90
38458;DHT22;24239;48.058;10.486;2022-08-24T03:04:17;10.60;99.90
38458;DHT22;24239;48.058;10.486;2022-08-24T03:06:43;10.50;99.90
38458;DHT22;24239;48.058;10.486;2022-08-24T03:09:09;10.50;99.90
38458;DHT22;24239;48.058;10.486;2022-08-24T03:11:36;10.50;99.90
38458;DHT22;24239;48.058;10.486;2022-08-24T03:14:02;10.50;99.90
38458;DHT22;24239;48.058;10.486;2022-08-24T03:16:28;10.40;99.90
38458;DHT22;24239;48.058;10.486;2022-08-24T03:18:55;10.50;99.90
38458;DHT22;24239;48.058;10.486;2022-08-24T03:21:21;10.40;99.90
38458;DHT22;24239;48.058;10.486;2022-08-24T03:23:47;10.50;99.90
38458;DHT22;24239;48.058;10.486;2022-08-24T03:26:13;10.50;99.90
38458;DHT22;24239;48.058;10.486;2022-08-24T03:28:39;10.40;99.90
38458;DHT22;24239;48.058;10.486;2022-08-24T03:31:08;10.40;99.90
38458;DHT22;24239;48.058;10.486;2022-08-24T03:33:33;10.40;99.90
38458;DHT22;24239;48.058;10.486;2022-08-24T03:36:00;10.40;99.90
38458;DHT22;24239;48.058;10.486;2022-08-24T03:38:26;10.40;99.90
38458;DHT22;24239;48.058;10.486;2022-08-24T03:40:52;10.30;99.90
38458;DHT22;24239;48.058;10.486;2022-08-24T03:43:18;10.30;99.90
38458;DHT22;24239;48.058;10.486;2022-08-24T03:46:05;10.30;99.90
38458;DHT22;24239;48.058;10.486;2022-08-24T03:48:32;10.20;99.90
38458;DHT22;24239;48.058;10.486;2022-08-24T03:51:01;10.20;99.90
38458;DHT22;24239;48.058;10.486;2022-08-24T03:53:27;10.20;99.90
38458;DHT22;24239;48.058;10.486;2022-08-24T03:55:53;10.20;99.90
38458;DHT22;24239;48.058;10.486;2022-08-24T03:58:18;10.10;99.90
38458;DHT22;24239;48.058;10.486;2022-08-24T04:00:44;10.10;99.90
38458;DHT22;24239;48.058;10.486;2022-08-24T04:03:12;10.10;99.90
38458;DHT22;24239;48.058;10.486;2022-08-24T04:05:38;10.10;99.90
38458;DHT22;24239;48.058;10.486;2022-08-24T04:08:05;10.10;99.90
38458;DHT22;24239;48.058;10.486;2022-08-24T04:10:32;10.00;99.90
38458;DHT22;24239;48.058;10.486;2022-08-24T04:12:58;10.00;99.90
38458;DHT22;24239;48.058;10.486;2022-08-24T04:15:29;10.00;99.90
38458;DHT22;24239;48.058;10.486;2022-08-24T04:17:59;10.00;99.90
38458;DHT22;24239;48.058;10.486;2022-08-24T04:20:25;9.90;99.90
38458;DHT22;24239;48.058;10.486;2022-08-24T04:22:51;9.90;99.90
38458;DHT22;24239;48.058;10.486;2022-08-24T04:25:17;9.90;99.90
38458;DHT22;24239;48.058;10.486;2022-08-24T04:27:43;10.00;99.90
38458;DHT22;24239;48.058;10.486;2022-08-24T04:30:09;10.00;99.90
38458;DHT22;24239;48.058;10.486;2022-08-24T04:32:35;10.00;99.90
38458;DHT22;24239;48.058;10.486;2022-08-24T04:35:01;10.00;99.90
38458;DHT22;24239;48.058;10.486;2022-08-24T04:37:27;10.00;99.90
38458;DHT22;24239;48.058;10.486;2022-08-24T04:39:52;10.00;99.90
38458;DHT22;24239;48.058;10.486;2022-08-24T04:42:18;10.00;99.90
38458;DHT22;24239;48.058;10.486;2022-08-24T04:44:47;10.00;99.90
38458;DHT22;24239;48.058;10.486;2022-08-24T04:47:13;10.10;99.90
38458;DHT22;24239;48.058;10.486;2022-08-24T04:49:39;10.20;99.90
38458;DHT22;24239;48.058;10.486;2022-08-24T04:52:05;10.30;99.90
38458;DHT22;24239;48.058;10.486;2022-08-24T04:54:37;10.30;99.90
38458;DHT22;24239;48.058;10.486;2022-08-24T04:57:03;10.40;99.90
38458;DHT22;24239;48.058;10.486;2022-08-24T04:59:32;10.40;99.90
38458;DHT22;24239;48.058;10.486;2022-08-24T05:01:57;10.40;99.90
38458;DHT22;24239;48.058;10.486;2022-08-24T05:04:23;10.50;99.90
38458;DHT22;24239;48.058;10.486;2022-08-24T05:06:49;10.50;99.90
38458;DHT22;24239;48.058;10.486;2022-08-24T05:09:15;10.50;99.90
38458;DHT22;24239;48.058;10.486;2022-08-24T05:11:40;10.50;99.90
38458;DHT22;24239;48.058;10.486;2022-08-24T05:14:06;10.50;99.90
38458;DHT22;24239;48.058;10.486;2022-08-24T05:16:32;10.60;99.90
38458;DHT22;24239;48.058;10.486;2022-08-24T05:19:02;10.60;99.90
38458;DHT22;24239;48.058;10.486;2022-08-24T05:21:32;10.60;99.90
38458;DHT22;24239;48.058;10.486;2022-08-24T05:23:58;10.70;99.90
38458;DHT22;24239;48.058;10.486;2022-08-24T05:26:26;10.70;99.90
38458;DHT22;24239;48.058;10.486;2022-08-24T05:29:00;10.80;99.90
38458;DHT22;24239;48.058;10.486;2022-08-24T05:31:28;10.90;99.90
38458;DHT22;24239;48.058;10.486;2022-08-24T05:33:55;10.90;99.90
38458;DHT22;24239;48.058;10.486;2022-08-24T05:36:28;11.10;99.90
38458;DHT22;24239;48.058;10.486;2022-08-24T05:38:59;11.10;99.90
38458;DHT22;24239;48.058;10.486;2022-08-24T05:41:26;11.10;99.90
38458;DHT22;24239;48.058;10.486;2022-08-24T05:43:52;11.20;99.90
38458;DHT22;24239;48.058;10.486;2022-08-24T05:46:18;11.60;99.90
38458;DHT22;24239;48.058;10.486;2022-08-24T05:48:45;12.20;99.90
38458;DHT22;24239;48.058;10.486;2022-08-24T05:51:11;12.80;99.90
38458;DHT22;24239;48.058;10.486;2022-08-24T05:53:37;13.30;99.90
38458;DHT22;24239;48.058;10.486;2022-08-24T05:56:15;13.40;99.90
38458;DHT22;24239;48.058;10.486;2022-08-24T05:58:42;13.60;99.90
38458;DHT22;24239;48.058;10.486;2022-08-24T06:01:12;13.60;99.90
38458;DHT22;24239;48.058;10.486;2022-08-24T06:03:39;13.70;99.90
38458;DHT22;24239;48.058;10.486;2022-08-24T06:06:06;13.80;99.90
38458;DHT22;24239;48.058;10.486;2022-08-24T06:08:37;14.00;99.90
38458;DHT22;24239;48.058;10.486;2022-08-24T06:11:04;14.00;99.90
38458;DHT22;24239;48.058;10.486;2022-08-24T06:13:30;14.10;99.90
38458;DHT22;24239;48.058;10.486;2022-08-24T06:16:08;14.20;99.90
38458;DHT22;24239;48.058;10.486;2022-08-24T06:18:34;14.10;99.90
38458;DHT22;24239;48.058;10.486;2022-08-24T06:21:06;14.20;99.90
38458;DHT22;24239;48.058;10.486;2022-08-24T06:23:32;14.30;99.90
38458;DHT22;24239;48.058;10.486;2022-08-24T06:25:58;14.30;99.90
38458;DHT22;24239;48.058;10.486;2022-08-24T06:28:43;14.30;99.90
38458;DHT22;24239;48.058;10.486;2022-08-24T06:31:09;14.30;99.90
38458;DHT22;24239;48.058;10.486;2022-08-24T06:33:35;14.40;99.90
38458;DHT22;24239;48.058;10.486;2022-08-24T06:36:03;14.40;99.90
38458;DHT22;24239;48.058;10.486;2022-08-24T06:38:29;14.40;99.90
38458;DHT22;24239;48.058;10.486;2022-08-24T06:40:55;14.50;99.90
38458;DHT22;24239;48.058;10.486;2022-08-24T06:43:24;14.60;99.90
38458;DHT22;24239;48.058;10.486;2022-08-24T06:45:50;14.80;99.90
38458;DHT22;24239;48.058;10.486;2022-08-24T06:48:16;15.00;99.90
38458;DHT22;24239;48.058;10.486;2022-08-24T06:50:42;14.90;99.90
38458;DHT22;24239;48.058;10.486;2022-08-24T06:53:08;15.10;99.90
38458;DHT22;24239;48.058;10.486;2022-08-24T06:55:51;15.20;99.90
38458;DHT22;24239;48.058;10.486;2022-08-24T06:58:19;15.40;99.90
38458;DHT22;24239;48.058;10.486;2022-08-24T07:00:45;15.50;99.90
38458;DHT22;24239;48.058;10.486;2022-08-24T07:03:15;15.70;99.90
38458;DHT22;24239;48.058;10.486;2022-08-24T07:05:52;15.90;99.90
38458;DHT22;24239;48.058;10.486;2022-08-24T07:08:18;16.10;99.90
38458;DHT22;24239;48.058;10.486;2022-08-24T07:10:44;16.20;99.90
38458;DHT22;24239;48.058;10.486;2022-08-24T07:13:11;16.30;99.90
38458;DHT22;24239;48.058;10.486;2022-08-24T07:15:38;16.50;99.90
38458;DHT22;24239;48.058;10.486;2022-08-24T07:18:04;16.60;99.90
38458;DHT22;24239;48.058;10.486;2022-08-24T07:20:35;16.80;99.90
38458;DHT22;24239;48.058;10.486;2022-08-24T07:23:04;16.90;99.90
38458;DHT22;24239;48.058;10.486;2022-08-24T07:25:31;17.00;99.90
38458;DHT22;24239;48.058;10.486;2022-08-24T07:27:58;17.20;99.90
38458;DHT22;24239;48.058;10.486;2022-08-24T07:30:26;17.30;99.90
38458;DHT22;24239;48.058;10.486;2022-08-24T07:32:53;17.40;99.90
38458;DHT22;24239;48.058;10.486;2022-08-24T07:35:26;17.50;99.90
38458;DHT22;24239;48.058;10.486;2022-08-24T07:37:53;17.60;99.90
38458;DHT22;24239;48.058;10.486;2022-08-24T07:40:24;17.60;99.90
38458;DHT22;24239;48.058;10.486;2022-08-24T07:42:51;17.70;99.90
38458;DHT22;24239;48.058;10.486;2022-08-24T07:45:20;17.80;99.90
38458;DHT22;24239;48.058;10.486;2022-08-24T07:47:48;17.90;99.90
38458;DHT22;24239;48.058;10.486;2022-08-24T07:50:14;18.00;99.90
38458;DHT22;24239;48.058;10.486;2022-08-24T07:52:41;18.10;99.90
38458;DHT22;24239;48.058;10.486;2022-08-24T07:55:07;18.10;99.90
38458;DHT22;24239;48.058;10.486;2022-08-24T07:57:34;18.20;99.90
38458;DHT22;24239;48.058;10.486;2022-08-24T08:00:15;18.30;99.90
38458;DHT22;24239;48.058;10.486;2022-08-24T08:02:41;18.40;99.90
38458;DHT22;24239;48.058;10.486;2022-08-24T08:05:14;18.50;99.90
38458;DHT22;24239;48.058;10.486;2022-08-24T08:07:40;18.60;99.90
38458;DHT22;24239;48.058;10.486;2022-08-24T08:10:07;18.80;99.90
38458;DHT22;24239;48.058;10.486;2022-08-24T08:12:33;18.80;99.90
38458;DHT22;24239;48.058;10.486;2022-08-24T08:15:04;19.00;99.90
38458;DHT22;24239;48.058;10.486;2022-08-24T08:17:31;19.10;99.90
38458;DHT22;24239;48.058;10.486;2022-08-24T08:19:59;19.20;99.90
38458;DHT22;24239;48.058;10.486;2022-08-24T08:22:28;19.30;99.90
38458;DHT22;24239;48.058;10.486;2022-08-24T08:25:12;19.50;99.90
38458;DHT22;24239;48.058;10.486;2022-08-24T08:27:38;19.60;99.90
38458;DHT22;24239;48.058;10.486;2022-08-24T08:30:05;19.80;99.90
38458;DHT22;24239;48.058;10.486;2022-08-24T08:32:31;19.90;99.90
38458;DHT22;24239;48.058;10.486;2022-08-24T08:34:57;20.00;99.90
38458;DHT22;24239;48.058;10.486;2022-08-24T08:37:23;20.00;99.90
38458;DHT22;24239;48.058;10.486;2022-08-24T08:39:48;20.20;99.90
38458;DHT22;24239;48.058;10.486;2022-08-24T08:48:09;20.40;99.90
38458;DHT22;24239;48.058;10.486;2022-08-24T08:59:02;20.70;99.90
38458;DHT22;24239;48.058;10.486;2022-08-24T09:04:59;20.70;99.90
38458;DHT22;24239;48.058;10.486;2022-08-24T09:21:24;20.90;99.90
38458;DHT22;24239;48.058;10.486;2022-08-24T09:24:10;21.00;99.90
38458;DHT22;24239;48.058;10.486;2022-08-24T09:26:49;21.00;99.90
38458;DHT22;24239;48.058;10.486;2022-08-24T09:32:50;21.20;99.90
38458;DHT22;24239;48.058;10.486;2022-08-24T09:50:18;21.80;99.90
38458;DHT22;24239;48.058;10.486;2022-08-24T09:55:34;21.70;99.90
38458;DHT22;24239;48.058;10.486;2022-08-24T09:59:23;21.80;99.90
38458;DHT22;24239;48.058;10.486;2022-08-24T10:04:35;22.00;99.90
38458;DHT22;24239;48.058;10.486;2022-08-24T10:15:10;22.00;99.90
38458;DHT22;24239;48.058;10.486;2022-08-24T10:29:11;22.40;99.90
38458;DHT22;24239;48.058;10.486;2022-08-24T10:32:01;22.30;99.90
38458;DHT22;24239;48.058;10.486;2022-08-24T10:53:55;22.60;99.50
38458;DHT22;24239;48.058;10.486;2022-08-24T11:02:11;22.70;99.90
38458;DHT22;24239;48.058;10.486;2022-08-24T11:04:57;22.80;98.80
38458;DHT22;24239;48.058;10.486;2022-08-24T11:07:24;22.80;99.40
38458;DHT22;24239;48.058;10.486;2022-08-24T11:09:52;22.90;98.50
38458;DHT22;24239;48.058;10.486;2022-08-24T11:12:43;22.90;98.60
38458;DHT22;24239;48.058;10.486;2022-08-24T11:15:22;23.00;97.00
38458;DHT22;24239;48.058;10.486;2022-08-24T11:18:01;23.00;97.60
38458;DHT22;24239;48.058;10.486;2022-08-24T11:20:41;23.00;97.00
38458;DHT22;24239;48.058;10.486;2022-08-24T11:23:23;23.00;97.70
38458;DHT22;24239;48.058;10.486;2022-08-24T11:26:10;23.00;97.20
38458;DHT22;24239;48.058;10.486;2022-08-24T11:28:52;23.00;97.70
38458;DHT22;24239;48.058;10.486;2022-08-24T11:31:33;23.10;97.50
38458;DHT22;24239;48.058;10.486;2022-08-24T11:34:07;23.20;95.70
38458;DHT22;24239;48.058;10.486;2022-08-24T11:36:36;23.20;95.60
38458;DHT22;24239;48.058;10.486;2022-08-24T11:39:25;23.30;96.40
38458;DHT22;24239;48.058;10.486;2022-08-24T11:44:48;23.40;96.70
38458;DHT22;24239;48.058;10.486;2022-08-24T11:47:33;23.40;97.10
38458;DHT22;24239;48.058;10.486;2022-08-24T11:58:51;23.40;96.60
38458;DHT22;24239;48.058;10.486;2022-08-24T12:01:47;23.60;96.60
38458;DHT22;24239;48.058;10.486;2022-08-24T12:04:38;23.60;97.30
38458;DHT22;24239;48.058;10.486;2022-08-24T12:07:09;23.60;97.50
38458;DHT22;24239;48.058;10.486;2022-08-24T12:12:38;23.70;97.30
38458;DHT22;24239;48.058;10.486;2022-08-24T12:18:11;23.60;96.50
38458;DHT22;24239;48.058;10.486;2022-08-24T12:20:43;23.60;96.80
38458;DHT22;24239;48.058;10.486;2022-08-24T12:23:35;23.70;97.80
38458;DHT22;24239;48.058;10.486;2022-08-24T12:26:25;23.80;97.60
38458;DHT22;24239;48.058;10.486;2022-08-24T12:28:58;23.90;97.70
38458;DHT22;24239;48.058;10.486;2022-08-24T12:31:42;23.90;96.80
38458;DHT22;24239;48.058;10.486;2022-08-24T12:34:31;23.90;96.60
38458;DHT22;24239;48.058;10.486;2022-08-24T12:39:40;23.90;96.60
38458;DHT22;24239;48.058;10.486;2022-08-24T12:42:18;23.90;97.40
38458;DHT22;24239;48.058;10.486;2022-08-24T12:45:00;23.90;97.30
38458;DHT22;24239;48.058;10.486;2022-08-24T12:47:37;23.80;97.10
38458;DHT22;24239;48.058;10.486;2022-08-24T12:50:29;23.70;97.20
38458;DHT22;24239;48.058;10.486;2022-08-24T12:58:35;24.00;97.30
38458;DHT22;24239;48.058;10.486;2022-08-24T13:01:09;24.00;97.40
38458;DHT22;24239;48.058;10.486;2022-08-24T13:03:45;24.10;96.50
38458;DHT22;24239;48.058;10.486;2022-08-24T13:06:19;24.20;96.90
38458;DHT22;24239;48.058;10.486;2022-08-24T13:08:51;24.10;97.10
38458;DHT22;24239;48.058;10.486;2022-08-24T13:19:47;24.30;97.40
38458;DHT22;24239;48.058;10.486;2022-08-24T13:23:16;24.30;97.30
38458;DHT22;24239;48.058;10.486;2022-08-24T13:33:49;24.30;96.80
38458;DHT22;24239;48.058;10.486;2022-08-24T13:39:13;24.20;96.20
38458;DHT22;24239;48.058;10.486;2022-08-24T13:47:21;24.30;96.70
38458;DHT22;24239;48.058;10.486;2022-08-24T13:50:04;24.40;96.90
38458;DHT22;24239;48.058;10.486;2022-08-24T13:57:41;24.40;97.30
38458;DHT22;24239;48.058;10.486;2022-08-24T14:08:38;24.50;97.00
38458;DHT22;24239;48.058;10.486;2022-08-24T14:16:39;24.50;97.30
38458;DHT22;24239;48.058;10.486;2022-08-24T14:22:50;24.60;97.40
38458;DHT22;24239;48.058;10.486;2022-08-24T14:25:24;24.60;97.00
38458;DHT22;24239;48.058;10.486;2022-08-24T14:34:21;24.80;97.40
38458;DHT22;24239;48.058;10.486;2022-08-24T14:42:31;24.90;97.60
38458;DHT22;24239;48.058;10.486;2022-08-24T14:45:08;24.70;97.60
38458;DHT22;24239;48.058;10.486;2022-08-24T14:50:14;24.80;97.90
38458;DHT22;24239;48.058;10.486;2022-08-24T14:55:44;24.80;98.30
38458;DHT22;24239;48.058;10.486;2022-08-24T15:09:21;24.70;97.90
38458;DHT22;24239;48.058;10.486;2022-08-24T15:11:48;24.70;98.30
38458;DHT22;24239;48.058;10.486;2022-08-24T15:14:40;24.60;98.10
38458;DHT22;24239;48.058;10.486;2022-08-24T15:17:11;24.60;97.90
38458;DHT22;24239;48.058;10.486;2022-08-24T15:22:36;24.60;97.90
38458;DHT22;24239;48.058;10.486;2022-08-24T15:25:04;24.60;98.20
38458;DHT22;24239;48.058;10.486;2022-08-24T15:27:58;24.60;97.90
38458;DHT22;24239;48.058;10.486;2022-08-24T15:30:30;24.80;97.70
38458;DHT22;24239;48.058;10.486;2022-08-24T15:36:02;24.80;98.00
38458;DHT22;24239;48.058;10.486;2022-08-24T15:41:12;24.90;97.40
38458;DHT22;24239;48.058;10.486;2022-08-24T15:43:46;24.90;97.30
38458;DHT22;24239;48.058;10.486;2022-08-24T15:46:20;25.00;97.10
38458;DHT22;24239;48.058;10.486;2022-08-24T15:48:47;24.90;97.60
38458;DHT22;24239;48.058;10.486;2022-08-24T15:51:49;24.90;97.60
38458;DHT22;24239;48.058;10.486;2022-08-24T15:57:04;25.20;97.70
38458;DHT22;24239;48.058;10.486;2022-08-24T16:08:08;25.20;97.10
38458;DHT22;24239;48.058;10.486;2022-08-24T16:10:52;26.10;96.80
38458;DHT22;24239;48.058;10.486;2022-08-24T16:13:27;27.10;96.00
38458;DHT22;24239;48.058;10.486;2022-08-24T16:16:07;27.80;95.40
38458;DHT22;24239;48.058;10.486;2022-08-24T16:18:52;27.90;94.80
38458;DHT22;24239;48.058;10.486;2022-08-24T16:21:36;28.20;94.70
38458;DHT22;24239;48.058;10.486;2022-08-24T16:34:44;28.20;93.70
38458;DHT22;24239;48.058;10.486;2022-08-24T16:37:16;28.30;93.50
38458;DHT22;24239;48.058;10.486;2022-08-24T16:39:42;28.10;93.50
38458;DHT22;24239;48.058;10.486;2022-08-24T16:42:20;27.50;93.60
38458;DHT22;24239;48.058;10.486;2022-08-24T16:44:47;26.90;94.40
38458;DHT22;24239;48.058;10.486;2022-08-24T16:47:13;26.50;94.60
38458;DHT22;24239;48.058;10.486;2022-08-24T16:49:42;26.10;94.50
38458;DHT22;24239;48.058;10.486;2022-08-24T16:52:09;26.00;94.60
38458;DHT22;24239;48.058;10.486;2022-08-24T16:54:40;25.90;95.00
38458;DHT22;24239;48.058;10.486;2022-08-24T16:57:16;26.00;95.10
38458;DHT22;24239;48.058;10.486;2022-08-24T16:59:44;26.40;95.20
38458;DHT22;24239;48.058;10.486;2022-08-24T17:02:11;27.00;94.70
38458;DHT22;24239;48.058;10.486;2022-08-24T17:04:38;27.70;94.30
38458;DHT22;24239;48.058;10.486;2022-08-24T17:07:05;27.70;93.70
38458;DHT22;24239;48.058;10.486;2022-08-24T17:09:34;27.30;93.90
38458;DHT22;24239;48.058;10.486;2022-08-24T17:12:01;26.90;94.30
38458;DHT22;24239;48.058;10.486;2022-08-24T17:14:27;26.40;94.60
38458;DHT22;24239;48.058;10.486;2022-08-24T17:16:53;26.00;94.90
38458;DHT22;24239;48.058;10.486;2022-08-24T17:19:19;26.00;95.00
38458;DHT22;24239;48.058;10.486;2022-08-24T17:21:46;26.10;95.20
38458;DHT22;24239;48.058;10.486;2022-08-24T17:24:14;26.30;95.10
38458;DHT22;24239;48.058;10.486;2022-08-24T17:26:42;26.10;95.20
38458;DHT22;24239;48.058;10.486;2022-08-24T17:29:09;26.00;95.40
38458;DHT22;24239;48.058;10.486;2022-08-24T17:31:36;25.70;95.30
38458;DHT22;24239;48.058;10.486;2022-08-24T17:34:04;25.60;95.60
38458;DHT22;24239;48.058;10.486;2022-08-24T17:36:32;25.20;95.90
38458;DHT22;24239;48.058;10.486;2022-08-24T17:38:58;24.90;96.60
38458;DHT22;24239;48.058;10.486;2022-08-24T17:41:25;24.30;97.20
38458;DHT22;24239;48.058;10.486;2022-08-24T17:43:51;23.80;97.80
38458;DHT22;24239;48.058;10.486;2022-08-24T17:46:18;23.50;98.30
38458;DHT22;24239;48.058;10.486;2022-08-24T17:48:44;23.20;98.70
38458;DHT22;24239;48.058;10.486;2022-08-24T17:51:12;22.80;99.20
38458;DHT22;24239;48.058;10.486;2022-08-24T17:53:38;22.60;99.60
38458;DHT22;24239;48.058;10.486;2022-08-24T17:56:05;22.40;99.90
38458;DHT22;24239;48.058;10.486;2022-08-24T17:58:32;22.30;99.90
38458;DHT22;24239;48.058;10.486;2022-08-24T18:01:18;22.10;99.90
38458;DHT22;24239;48.058;10.486;2022-08-24T18:03:44;21.90;99.90
38458;DHT22;24239;48.058;10.486;2022-08-24T18:06:10;21.70;99.90
38458;DHT22;24239;48.058;10.486;2022-08-24T18:08:36;21.50;99.90
38458;DHT22;24239;48.058;10.486;2022-08-24T18:11:04;21.40;99.90
38458;DHT22;24239;48.058;10.486;2022-08-24T18:13:32;21.20;99.90
38458;DHT22;24239;48.058;10.486;2022-08-24T18:15:58;21.10;99.90
38458;DHT22;24239;48.058;10.486;2022-08-24T18:18:24;20.90;99.90
38458;DHT22;24239;48.058;10.486;2022-08-24T18:20:50;20.80;99.90
38458;DHT22;24239;48.058;10.486;2022-08-24T18:23:16;20.70;99.90
38458;DHT22;24239;48.058;10.486;2022-08-24T18:25:47;20.50;99.90
38458;DHT22;24239;48.058;10.486;2022-08-24T18:28:15;20.40;99.90
38458;DHT22;24239;48.058;10.486;2022-08-24T18:30:42;20.30;99.90
38458;DHT22;24239;48.058;10.486;2022-08-24T18:33:11;20.20;99.90
38458;DHT22;24239;48.058;10.486;2022-08-24T18:35:37;20.10;99.90
38458;DHT22;24239;48.058;10.486;2022-08-24T18:38:03;20.00;99.90
38458;DHT22;24239;48.058;10.486;2022-08-24T18:40:29;19.90;99.90
38458;DHT22;24239;48.058;10.486;2022-08-24T18:42:56;19.80;99.90
38458;DHT22;24239;48.058;10.486;2022-08-24T18:45:24;19.70;99.90
38458;DHT22;24239;48.058;10.486;2022-08-24T18:47:51;19.60;99.90
38458;DHT22;24239;48.058;10.486;2022-08-24T18:50:17;19.50;99.90
38458;DHT22;24239;48.058;10.486;2022-08-24T18:52:43;19.50;99.90
38458;DHT22;24239;48.058;10.486;2022-08-24T18:55:09;19.40;99.90
38458;DHT22;24239;48.058;10.486;2022-08-24T18:57:35;19.30;99.90
38458;DHT22;24239;48.058;10.486;2022-08-24T19:00:02;19.20;99.90
38458;DHT22;24239;48.058;10.486;2022-08-24T19:02:28;19.10;99.90
38458;DHT22;24239;48.058;10.486;2022-08-24T19:04:56;19.00;99.90
38458;DHT22;24239;48.058;10.486;2022-08-24T19:07:24;18.90;99.90
38458;DHT22;24239;48.058;10.486;2022-08-24T19:09:53;18.80;99.90
38458;DHT22;24239;48.058;10.486;2022-08-24T19:12:19;18.70;99.90
38458;DHT22;24239;48.058;10.486;2022-08-24T19:14:45;18.70;99.90
38458;DHT22;24239;48.058;10.486;2022-08-24T19:17:14;18.60;99.90
38458;DHT22;24239;48.058;10.486;2022-08-24T19:19:40;18.50;99.90
38458;DHT22;24239;48.058;10.486;2022-08-24T19:22:06;18.40;99.90
38458;DHT22;24239;48.058;10.486;2022-08-24T19:24:35;18.40;99.90
38458;DHT22;24239;48.058;10.486;2022-08-24T19:27:01;18.30;99.90
38458;DHT22;24239;48.058;10.486;2022-08-24T19:29:27;18.20;99.90
38458;DHT22;24239;48.058;10.486;2022-08-24T19:31:54;18.10;99.90
38458;DHT22;24239;48.058;10.486;2022-08-24T19:34:21;18.10;99.90